createdAt,value
2018-12-21T00:01:45.639Z,7.23
2018-12-21T00:04:14.327Z,6.20
2018-12-21T00:06:43.868Z,6.97
2018-12-21T00:09:12.579Z,6.40
2018-12-21T00:11:41.381Z,6.40
2018-12-21T00:14:10.075Z,6.17
2018-12-21T00:16:38.799Z,6.37
2018-12-21T00:19:07.499Z,6.10
2018-12-21T00:21:36.242Z,6.13
2018-12-21T00:24:04.936Z,6.57
2018-12-21T00:26:33.681Z,6.23
2018-12-21T00:29:02.464Z,6.27
2018-12-21T00:31:36.700Z,6.53
2018-12-21T00:34:10.895Z,6.17
2018-12-21T00:36:45.074Z,5.70
2018-12-21T00:39:19.212Z,5.80
2018-12-21T00:41:47.434Z,6.17
2018-12-21T00:44:25.676Z,5.70
2018-12-21T00:46:58.189Z,6.20
2018-12-21T00:49:27.759Z,5.40
2018-12-21T00:51:56.510Z,5.57
2018-12-21T00:54:25.200Z,5.70
2018-12-21T00:56:53.918Z,5.50
2018-12-21T00:59:22.702Z,6.20
2018-12-21T01:01:51.491Z,5.53
2018-12-21T01:04:20.292Z,5.97
2018-12-21T01:06:49.059Z,5.50
2018-12-21T01:09:17.896Z,5.30
2018-12-21T01:11:46.857Z,4.90
2018-12-21T01:14:15.726Z,4.63
2018-12-21T01:16:44.649Z,5.20
2018-12-21T01:19:13.408Z,5.17
2018-12-21T01:21:42.618Z,5.43
2018-12-21T01:24:11.403Z,5.60
2018-12-21T01:26:40.212Z,5.47
2018-12-21T01:29:08.888Z,4.87
2018-12-21T01:31:37.677Z,5.40
2018-12-21T01:34:06.525Z,4.80
2018-12-21T01:36:35.242Z,5.20
2018-12-21T01:39:06.302Z,4.80
2018-12-21T01:41:35.020Z,5.30
2018-12-21T01:44:03.873Z,4.77
2018-12-21T01:46:32.745Z,4.50
2018-12-21T01:49:01.446Z,4.93
2018-12-21T01:51:30.183Z,5.33
2018-12-21T01:53:58.880Z,4.60
2018-12-21T01:56:27.583Z,4.70
2018-12-21T01:58:56.367Z,4.83
2018-12-21T02:01:25.159Z,4.90
2018-12-21T02:03:53.957Z,4.43
2018-12-21T02:06:22.835Z,4.50
2018-12-21T02:08:51.622Z,4.47
2018-12-21T02:11:20.416Z,4.60
2018-12-21T02:13:49.130Z,4.50
2018-12-21T02:16:17.886Z,4.00
2018-12-21T02:18:46.864Z,4.00
2018-12-21T02:21:15.618Z,3.77
2018-12-21T02:23:44.400Z,3.90
2018-12-21T02:26:13.093Z,4.37
2018-12-21T02:28:41.793Z,3.50
2018-12-21T02:31:10.501Z,3.30
2018-12-21T02:33:39.188Z,3.87
2018-12-21T02:36:08.023Z,3.67
2018-12-21T02:38:36.840Z,4.03
2018-12-21T02:41:05.804Z,4.07
2018-12-21T02:43:34.499Z,3.80
2018-12-21T02:46:03.590Z,3.90
2018-12-21T02:48:32.423Z,3.20
2018-12-21T02:51:01.267Z,3.73
2018-12-21T02:53:30.228Z,3.50
2018-12-21T02:55:59.127Z,3.60
2018-12-21T02:58:27.885Z,3.50
2018-12-21T03:00:56.600Z,3.37
2018-12-21T03:03:25.390Z,3.70
2018-12-21T03:05:54.096Z,3.33
2018-12-21T03:08:22.820Z,3.00
2018-12-21T03:10:51.644Z,3.30
2018-12-21T03:13:20.344Z,2.80
2018-12-21T03:15:49.065Z,3.27
2018-12-21T03:18:17.768Z,3.37
2018-12-21T03:20:46.617Z,3.17
2018-12-21T03:23:15.417Z,3.10
2018-12-21T03:25:44.217Z,3.20
2018-12-21T03:28:13.069Z,3.07
2018-12-21T03:30:41.843Z,3.20
2018-12-21T03:33:10.835Z,3.10
2018-12-21T03:35:39.705Z,3.40
2018-12-21T03:38:08.594Z,3.20
2018-12-21T03:40:37.539Z,3.27
2018-12-21T03:43:06.458Z,3.70
2018-12-21T03:45:35.148Z,4.07
2018-12-21T03:48:04.012Z,3.47
2018-12-21T03:50:32.913Z,3.87
2018-12-21T03:53:01.836Z,3.80
2018-12-21T03:55:30.693Z,3.60
2018-12-21T03:57:59.456Z,3.70
2018-12-21T04:00:28.184Z,4.07
2018-12-21T04:02:56.930Z,3.77
2018-12-21T04:05:25.709Z,4.07
2018-12-21T04:07:54.458Z,4.30
2018-12-21T04:10:23.283Z,3.90
2018-12-21T04:12:52.082Z,4.17
2018-12-21T04:15:21.107Z,4.37
2018-12-21T04:17:49.910Z,3.97
2018-12-21T04:20:18.659Z,4.33
2018-12-21T04:22:47.446Z,4.43
2018-12-21T04:25:16.226Z,4.17
2018-12-21T04:27:45.013Z,4.53
2018-12-21T04:30:13.876Z,4.10
2018-12-21T04:32:42.585Z,4.57
2018-12-21T04:35:11.355Z,3.93
2018-12-21T04:37:40.078Z,5.67
2018-12-21T04:40:08.893Z,5.00
2018-12-21T04:42:37.596Z,4.40
2018-12-21T04:45:06.453Z,4.23
2018-12-21T04:47:35.241Z,4.27
2018-12-21T04:50:04.383Z,4.33
2018-12-21T04:52:33.165Z,5.13
2018-12-21T04:55:01.957Z,4.50
2018-12-21T04:57:30.717Z,4.20
2018-12-21T04:59:59.436Z,3.87
2018-12-21T05:02:28.200Z,4.40
2018-12-21T05:04:56.911Z,4.63
2018-12-21T05:07:25.666Z,4.20
2018-12-21T05:09:54.622Z,4.60
2018-12-21T05:12:23.313Z,4.47
2018-12-21T05:14:52.071Z,4.20
2018-12-21T05:17:20.826Z,4.23
2018-12-21T05:19:49.711Z,4.53
2018-12-21T05:22:18.410Z,5.20
2018-12-21T05:24:47.132Z,5.20
2018-12-21T05:27:15.916Z,4.87
2018-12-21T05:29:44.660Z,4.83
2018-12-21T05:32:14.262Z,4.83
2018-12-21T05:34:42.977Z,5.10
2018-12-21T05:37:11.761Z,5.53
2018-12-21T05:39:40.469Z,5.10
2018-12-21T05:42:09.299Z,5.10
2018-12-21T05:44:38.048Z,5.43
2018-12-21T05:47:06.877Z,4.77
2018-12-21T05:49:35.784Z,5.53
2018-12-21T05:52:04.566Z,5.57
2018-12-21T05:54:33.297Z,5.23
2018-12-21T05:57:02.268Z,4.90
2018-12-21T05:59:31.058Z,5.37
2018-12-21T06:02:00.091Z,5.07
2018-12-21T06:04:28.891Z,4.93
2018-12-21T06:06:57.701Z,4.90
2018-12-21T06:09:26.421Z,4.87
2018-12-21T06:11:55.291Z,4.73
2018-12-21T06:14:24.053Z,4.87
2018-12-21T06:16:52.872Z,4.90
2018-12-21T06:19:21.714Z,5.30
2018-12-21T06:21:50.627Z,4.87
2018-12-21T06:24:19.441Z,4.57
2018-12-21T06:26:48.217Z,4.50
2018-12-21T06:29:17.015Z,4.97
2018-12-21T06:31:45.897Z,5.87
2018-12-21T06:34:14.663Z,6.73
2018-12-21T06:36:43.444Z,7.17
2018-12-21T06:39:12.317Z,14.43
2018-12-21T06:41:41.112Z,13.30
2018-12-21T06:44:09.940Z,7.13
2018-12-21T06:46:38.888Z,7.40
2018-12-21T06:49:07.586Z,8.70
2018-12-21T06:51:36.383Z,6.00
2018-12-21T06:54:05.386Z,6.13
2018-12-21T06:56:34.228Z,9.30
2018-12-21T06:59:03.162Z,6.00
2018-12-21T07:01:31.920Z,6.53
2018-12-21T07:04:00.945Z,9.77
2018-12-21T07:06:29.736Z,8.10
2018-12-21T07:08:58.532Z,16.93
2018-12-21T07:11:27.335Z,6.67
2018-12-21T07:13:56.366Z,7.35
2018-12-21T07:16:25.226Z,11.50
2018-12-21T07:18:54.032Z,7.00
2018-12-21T07:21:22.780Z,9.33
2018-12-21T07:23:51.772Z,9.07
2018-12-21T07:26:20.650Z,5.73
2018-12-21T07:28:49.768Z,20.77
2018-12-21T07:31:18.482Z,10.60
2018-12-21T07:33:47.217Z,10.03
2018-12-21T07:36:16.182Z,8.57
2018-12-21T07:38:44.964Z,10.70
2018-12-21T07:41:13.978Z,10.37
2018-12-21T07:43:42.689Z,7.70
2018-12-21T07:46:11.479Z,9.80
2018-12-21T07:48:40.320Z,8.37
2018-12-21T07:51:09.075Z,11.27
2018-12-21T07:53:37.941Z,10.97
2018-12-21T07:56:06.730Z,9.93
2018-12-21T07:58:35.439Z,9.30
2018-12-21T08:01:04.439Z,9.50
2018-12-21T08:03:33.223Z,8.07
2018-12-21T08:06:02.164Z,7.20
2018-12-21T08:08:31.804Z,8.23
2018-12-21T08:11:00.699Z,8.27
2018-12-21T08:13:29.726Z,7.93
2018-12-21T08:15:58.589Z,8.40
2018-12-21T08:18:27.448Z,7.73
2018-12-21T08:20:56.321Z,7.53
2018-12-21T08:23:25.120Z,7.27
2018-12-21T08:25:53.898Z,6.80
2018-12-21T08:28:22.700Z,6.53
2018-12-21T08:30:51.562Z,6.90
2018-12-21T08:33:20.366Z,6.83
2018-12-21T08:35:49.376Z,6.63
2018-12-21T08:38:18.156Z,6.03
2018-12-21T08:40:46.998Z,7.80
2018-12-21T08:43:15.830Z,7.77
2018-12-21T08:45:44.567Z,8.07
2018-12-21T08:48:13.339Z,6.47
2018-12-21T08:50:42.081Z,6.90
2018-12-21T08:53:11.149Z,6.43
2018-12-21T08:55:39.913Z,6.60
2018-12-21T08:58:08.673Z,6.07
2018-12-21T09:00:37.469Z,5.87
2018-12-21T09:03:06.535Z,5.77
2018-12-21T09:05:35.419Z,5.70
2018-12-21T09:08:04.448Z,5.70
2018-12-21T09:10:33.285Z,6.80
2018-12-21T09:13:02.153Z,8.53
2018-12-21T09:15:31.105Z,6.00
2018-12-21T09:18:00.676Z,5.17
2018-12-21T09:20:29.405Z,4.90
2018-12-21T09:22:58.199Z,8.13
2018-12-21T09:25:27.084Z,6.10
2018-12-21T09:27:55.897Z,4.77
2018-12-21T09:30:24.803Z,5.40
2018-12-21T09:32:53.599Z,5.43
2018-12-21T09:35:22.387Z,5.57
2018-12-21T09:37:51.453Z,5.30
2018-12-21T09:40:20.248Z,5.43
2018-12-21T09:42:49.135Z,5.10
2018-12-21T09:45:17.921Z,5.33
2018-12-21T09:47:46.721Z,5.20
2018-12-21T09:50:15.534Z,5.60
2018-12-21T09:52:44.440Z,6.80
2018-12-21T09:55:13.384Z,5.10
2018-12-21T09:57:42.181Z,5.07
2018-12-21T10:00:11.981Z,4.77
2018-12-21T10:02:41.512Z,4.97
2018-12-21T10:05:14.606Z,5.03
2018-12-21T10:07:43.601Z,5.13
2018-12-21T10:10:12.781Z,5.07
2018-12-21T10:12:41.657Z,5.23
2018-12-21T10:15:10.651Z,4.60
2018-12-21T10:17:39.488Z,4.63
2018-12-21T10:20:09.481Z,4.50
2018-12-21T10:22:38.273Z,4.23
2018-12-21T10:25:07.810Z,4.40
2018-12-21T10:27:36.604Z,4.37
2018-12-21T10:30:08.086Z,3.87
2018-12-21T10:32:41.813Z,5.10
2018-12-21T10:35:15.263Z,4.00
2018-12-21T10:37:44.226Z,4.30
2018-12-21T10:40:13.120Z,4.43
2018-12-21T10:42:42.652Z,4.10
2018-12-21T10:45:11.688Z,3.77
2018-12-21T10:47:40.438Z,3.93
2018-12-21T10:50:11.314Z,4.17
2018-12-21T10:52:40.396Z,4.80
2018-12-21T10:55:09.195Z,4.20
2018-12-21T10:57:38.160Z,3.83
2018-12-21T11:00:09.652Z,3.77
2018-12-21T11:02:38.430Z,4.20
2018-12-21T11:05:07.762Z,4.30
2018-12-21T11:07:36.608Z,4.10
2018-12-21T11:10:08.208Z,3.43
2018-12-21T11:12:37.106Z,4.00
2018-12-21T11:15:06.680Z,3.27
2018-12-21T11:17:35.573Z,3.70
2018-12-21T11:20:05.388Z,3.53
2018-12-21T11:22:34.526Z,3.60
2018-12-21T11:25:03.616Z,3.03
2018-12-21T11:27:32.372Z,3.17
2018-12-21T11:30:01.274Z,3.10
2018-12-21T11:32:30.012Z,2.70
2018-12-21T11:34:58.763Z,2.87
2018-12-21T11:37:27.761Z,2.97
2018-12-21T11:39:56.699Z,2.77
2018-12-21T11:42:25.551Z,2.73
2018-12-21T11:44:54.531Z,2.27
2018-12-21T11:47:23.530Z,2.20
2018-12-21T11:49:52.235Z,2.80
2018-12-21T11:52:21.119Z,2.40
2018-12-21T11:54:49.825Z,2.73
2018-12-21T11:57:18.838Z,2.47
2018-12-21T11:59:47.644Z,2.27
2018-12-21T12:02:19.780Z,2.60
2018-12-21T12:04:47.497Z,2.77
2018-12-21T12:07:16.374Z,2.97
2018-12-21T12:09:45.219Z,3.20
2018-12-21T12:12:13.994Z,3.13
2018-12-21T12:14:42.674Z,2.67
2018-12-21T12:17:11.488Z,2.63
2018-12-21T12:19:40.478Z,2.90
2018-12-21T12:22:09.304Z,2.40
2018-12-21T12:24:38.170Z,2.77
2018-12-21T12:27:06.890Z,2.73
2018-12-21T12:29:35.870Z,2.80
2018-12-21T12:32:04.742Z,2.43
2018-12-21T12:34:33.726Z,2.50
2018-12-21T12:37:02.940Z,2.97
2018-12-21T12:39:31.630Z,3.03
2018-12-21T12:42:00.547Z,3.20
2018-12-21T12:44:29.364Z,3.40
2018-12-21T12:46:58.096Z,2.97
2018-12-21T12:49:27.992Z,3.23
2018-12-21T12:51:57.670Z,2.97
2018-12-21T12:54:26.474Z,2.80
2018-12-21T12:56:55.360Z,3.10
2018-12-21T12:59:24.218Z,3.27
2018-12-21T13:01:53.527Z,3.20
2018-12-21T13:04:22.225Z,2.63
2018-12-21T13:06:51.418Z,3.90
2018-12-21T13:09:20.407Z,4.73
2018-12-21T13:11:49.231Z,2.93
2018-12-21T13:14:18.009Z,2.87
2018-12-21T13:16:46.874Z,2.80
2018-12-21T13:19:15.933Z,3.30
2018-12-21T13:21:44.791Z,2.53
2018-12-21T13:24:13.764Z,3.80
2018-12-21T13:26:42.527Z,3.67
2018-12-21T13:29:11.365Z,3.30
2018-12-21T13:31:40.173Z,3.27
2018-12-21T13:34:08.952Z,3.10
2018-12-21T13:36:37.777Z,2.47
2018-12-21T13:39:08.825Z,3.00
2018-12-21T13:41:38.312Z,3.13
2018-12-21T13:44:07.177Z,3.00
2018-12-21T13:46:35.962Z,2.97
2018-12-21T13:49:04.766Z,2.83
2018-12-21T13:51:33.628Z,3.43
2018-12-21T13:54:02.616Z,2.97
2018-12-21T13:56:32.088Z,2.90
2018-12-21T13:59:00.888Z,3.30
2018-12-21T14:01:29.692Z,2.90
2018-12-21T14:03:58.460Z,2.50
2018-12-21T14:06:27.292Z,3.03
2018-12-21T14:08:56.062Z,3.00
2018-12-21T14:11:24.924Z,2.97
2018-12-21T14:13:53.736Z,3.43
2018-12-21T14:16:22.502Z,3.13
2018-12-21T14:18:51.834Z,3.20
2018-12-21T14:21:20.679Z,3.83
2018-12-21T14:23:49.492Z,3.30
2018-12-21T14:26:18.454Z,3.40
2018-12-21T14:28:47.218Z,3.50
2018-12-21T14:31:16.032Z,3.67
2018-12-21T14:33:45.272Z,4.10
2018-12-21T14:36:14.050Z,3.37
2018-12-21T14:38:42.898Z,3.50
2018-12-21T14:41:11.671Z,4.27
2018-12-21T14:43:40.386Z,3.37
2018-12-21T14:46:09.383Z,5.17
2018-12-21T14:48:38.044Z,4.30
2018-12-21T14:51:06.943Z,5.40
2018-12-21T14:53:35.755Z,4.53
2018-12-21T14:56:06.649Z,5.10
2018-12-21T14:58:35.863Z,4.70
2018-12-21T15:01:04.971Z,4.63
2018-12-21T15:03:33.775Z,5.33
2018-12-21T15:06:02.850Z,5.10
2018-12-21T15:08:31.571Z,5.20
2018-12-21T15:11:00.491Z,6.20
2018-12-21T15:13:29.230Z,4.93
2018-12-21T15:15:58.053Z,5.60
2018-12-21T15:18:27.030Z,5.97
2018-12-21T15:20:55.864Z,5.70
2018-12-21T15:23:24.588Z,6.70
2018-12-21T15:25:53.398Z,7.40
2018-12-21T15:28:22.209Z,7.17
2018-12-21T15:30:50.992Z,7.43
2018-12-21T15:33:19.704Z,7.30
2018-12-21T15:35:48.517Z,7.80
2018-12-21T15:38:17.427Z,6.60
2018-12-21T15:40:46.358Z,7.40
2018-12-21T15:43:15.208Z,7.37
2018-12-21T15:45:44.733Z,7.23
2018-12-21T15:48:13.454Z,9.03
2018-12-21T15:50:42.304Z,7.87
2018-12-21T15:53:11.105Z,8.07
2018-12-21T15:55:40.017Z,8.70
2018-12-21T15:58:08.973Z,7.80
2018-12-21T16:00:37.812Z,7.13
2018-12-21T16:03:07.143Z,7.77
2018-12-21T16:05:35.918Z,8.03
2018-12-21T16:08:04.812Z,7.17
2018-12-21T16:10:33.759Z,8.27
2018-12-21T16:13:02.842Z,7.70
2018-12-21T16:15:31.783Z,7.27
2018-12-21T16:18:00.523Z,7.20
2018-12-21T16:20:29.363Z,7.30
2018-12-21T16:22:58.136Z,7.07
2018-12-21T16:25:27.072Z,9.17
2018-12-21T16:27:55.969Z,7.67
2018-12-21T16:30:24.878Z,7.57
2018-12-21T16:32:53.649Z,7.33
2018-12-21T16:35:22.479Z,7.30
2018-12-21T16:37:51.277Z,6.83
2018-12-21T16:40:20.119Z,7.43
2018-12-21T16:42:49.152Z,8.13
2018-12-21T16:45:17.895Z,6.30
2018-12-21T16:47:47.759Z,6.47
2018-12-21T16:50:16.683Z,6.43
2018-12-21T16:55:22.632Z,6.70
2018-12-21T16:57:51.344Z,5.50
2018-12-21T17:00:20.372Z,6.10
2018-12-21T17:02:49.219Z,5.87
2018-12-21T17:05:18.017Z,6.00
2018-12-21T17:07:46.885Z,5.97
2018-12-21T17:10:23.582Z,5.53
2018-12-21T17:12:52.296Z,5.50
2018-12-21T17:15:20.990Z,5.30
2018-12-21T17:17:49.862Z,5.37
2018-12-21T17:20:19.314Z,5.13
2018-12-21T17:22:48.203Z,4.90
2018-12-21T17:25:16.869Z,5.47
2018-12-21T17:27:45.703Z,12.97
2018-12-21T17:30:14.511Z,4.87
2018-12-21T17:32:43.148Z,4.23
2018-12-21T17:35:12.047Z,4.13
2018-12-21T17:37:40.782Z,4.27
2018-12-21T17:40:10.884Z,3.77
2018-12-21T17:42:39.613Z,4.57
2018-12-21T17:45:10.575Z,4.83
2018-12-21T17:47:39.316Z,3.90
2018-12-21T17:50:09.797Z,4.00
2018-12-21T17:52:39.275Z,4.60
2018-12-21T17:55:09.046Z,4.57
2018-12-21T17:57:37.751Z,4.57
2018-12-21T18:00:11.877Z,4.10
2018-12-21T18:02:41.205Z,5.60
2018-12-21T18:05:10.393Z,4.70
2018-12-21T18:07:39.053Z,4.90
2018-12-21T18:10:09.719Z,5.37
2018-12-21T18:12:38.881Z,5.67
2018-12-21T18:15:08.735Z,5.53
2018-12-21T18:17:37.774Z,5.33
2018-12-21T18:20:09.941Z,6.50
2018-12-21T18:22:38.992Z,5.37
2018-12-21T18:25:13.227Z,6.03
2018-12-21T18:27:43.714Z,6.30
2018-12-21T18:30:16.462Z,5.77
2018-12-21T18:32:45.361Z,5.83
2018-12-21T18:35:16.600Z,6.03
2018-12-21T18:37:49.829Z,6.87
2018-12-21T18:40:18.490Z,7.70
2018-12-21T18:42:47.375Z,6.63
2018-12-21T18:45:16.224Z,6.80
2018-12-21T18:47:45.319Z,6.60
2018-12-21T18:50:14.310Z,6.37
2018-12-21T18:52:43.098Z,6.30
2018-12-21T18:55:13.818Z,5.77
2018-12-21T18:57:42.531Z,5.93
2018-12-21T19:00:13.642Z,5.83
2018-12-21T19:02:42.586Z,6.17
2018-12-21T19:05:11.319Z,5.40
2018-12-21T19:07:40.377Z,5.53
2018-12-21T19:10:10.440Z,5.63
2018-12-21T19:12:39.185Z,5.87
2018-12-21T19:15:10.123Z,5.57
2018-12-21T19:17:38.998Z,5.73
2018-12-21T19:20:10.869Z,5.57
2018-12-21T19:22:39.888Z,5.80
2018-12-21T19:25:10.414Z,5.53
2018-12-21T19:27:39.212Z,5.00
2018-12-21T19:30:10.601Z,4.90
2018-12-21T19:32:40.930Z,5.03
2018-12-21T19:35:10.712Z,5.13
2018-12-21T19:37:39.550Z,4.57
2018-12-21T19:40:09.823Z,4.90
2018-12-21T19:42:39.223Z,4.73
2018-12-21T19:45:10.466Z,4.70
2018-12-21T19:47:39.397Z,4.90
2018-12-21T19:50:09.538Z,4.63
2018-12-21T19:52:38.739Z,4.70
2018-12-21T19:55:21.123Z,4.40
2018-12-21T19:57:49.996Z,4.43
2018-12-21T20:00:18.655Z,4.47
2018-12-21T20:02:47.515Z,4.33
2018-12-21T20:05:16.343Z,4.00
2018-12-21T20:07:45.096Z,4.20
2018-12-21T20:10:13.900Z,3.87
2018-12-21T20:12:42.758Z,3.77
2018-12-21T20:15:11.969Z,3.77
2018-12-21T20:17:40.833Z,3.80
2018-12-21T20:20:10.689Z,3.10
2018-12-21T20:22:39.361Z,3.43
2018-12-21T20:25:09.634Z,3.20
2018-12-21T20:27:39.268Z,2.60
2018-12-21T20:30:11.107Z,2.60
2018-12-21T20:32:39.879Z,3.30
2018-12-21T20:35:09.319Z,2.73
2018-12-21T20:37:38.145Z,2.70
2018-12-21T20:40:08.328Z,2.70
2018-12-21T20:42:37.364Z,2.40
2018-12-21T20:45:07.535Z,2.60
2018-12-21T20:47:36.367Z,2.43
2018-12-21T20:50:07.037Z,2.20
2018-12-21T20:52:36.239Z,2.50
2018-12-21T20:55:05.815Z,2.60
2018-12-21T20:57:34.607Z,2.57
2018-12-21T21:00:03.859Z,2.23
2018-12-21T21:02:32.691Z,2.70
2018-12-21T21:05:01.467Z,2.20
2018-12-21T21:07:30.290Z,2.43
2018-12-21T21:09:58.961Z,2.20
2018-12-21T21:12:27.727Z,2.13
2018-12-21T21:14:56.446Z,2.13
2018-12-21T21:17:25.282Z,1.90
2018-12-21T21:19:53.987Z,2.53
2018-12-21T21:22:22.701Z,2.30
2018-12-21T21:24:51.453Z,2.20
2018-12-21T21:27:20.215Z,2.37
2018-12-21T21:29:49.333Z,2.30
2018-12-21T21:32:18.101Z,2.07
2018-12-21T21:34:47.519Z,2.60
2018-12-21T21:37:16.328Z,2.30
2018-12-21T21:39:45.097Z,2.30
2018-12-21T21:42:13.891Z,2.60
2018-12-21T21:44:42.614Z,2.40
2018-12-21T21:47:11.338Z,2.37
2018-12-21T21:49:40.140Z,2.33
2018-12-21T21:52:08.935Z,2.57
2018-12-21T21:54:37.791Z,3.37
2018-12-21T21:57:06.517Z,2.30
2018-12-21T21:59:35.208Z,2.70
2018-12-21T22:02:03.995Z,2.57
2018-12-21T22:04:32.841Z,2.53
2018-12-21T22:07:01.655Z,4.07
2018-12-21T22:09:30.317Z,2.60
2018-12-21T22:12:00.160Z,2.50
2018-12-21T22:14:29.150Z,2.80
2018-12-21T22:16:57.970Z,2.73
2018-12-21T22:19:26.697Z,2.17
2018-12-21T22:21:55.419Z,2.30
2018-12-21T22:24:24.197Z,2.50
2018-12-21T22:26:52.911Z,1.90
2018-12-21T22:29:21.689Z,2.47
2018-12-21T22:31:50.369Z,2.30
2018-12-21T22:34:19.107Z,2.43
2018-12-21T22:36:47.959Z,1.97
2018-12-21T22:39:16.673Z,2.03
2018-12-21T22:41:45.458Z,2.13
2018-12-21T22:44:14.199Z,2.10
2018-12-21T22:46:42.948Z,2.27
2018-12-21T22:49:11.765Z,2.47
2018-12-21T22:51:40.466Z,2.60
2018-12-21T22:54:09.182Z,2.50
2018-12-21T22:56:38.088Z,2.57
2018-12-21T22:59:07.034Z,2.33
2018-12-21T23:01:36.504Z,3.07
2018-12-21T23:04:05.192Z,2.40
2018-12-21T23:06:33.986Z,2.60
2018-12-21T23:09:02.758Z,2.20
2018-12-21T23:11:31.472Z,3.20
2018-12-21T23:14:00.190Z,2.80
2018-12-21T23:16:29.015Z,2.40
2018-12-21T23:18:57.766Z,3.00
2018-12-21T23:21:26.523Z,2.80
2018-12-21T23:23:55.178Z,2.43
2018-12-21T23:26:24.029Z,2.40
2018-12-21T23:28:52.850Z,2.73
2018-12-21T23:31:21.586Z,2.37
2018-12-21T23:33:50.381Z,2.20
2018-12-21T23:36:19.110Z,2.10
2018-12-21T23:38:47.860Z,2.47
2018-12-21T23:41:16.591Z,2.43
2018-12-21T23:43:45.721Z,2.53
2018-12-21T23:46:14.453Z,2.63
2018-12-21T23:48:43.105Z,3.37
2018-12-21T23:51:11.827Z,3.07
2018-12-21T23:53:40.748Z,2.27
2018-12-21T23:56:16.207Z,2.10
2018-12-21T23:58:44.847Z,1.60
